Grand Crossing, Illinois
Current Conditions -  °F | °C
As of 7:53 AM on Monday 22 Dec 2014 (Local Time) from KMDW Reporting Station
Overcast Overcast  
Wind Chill: 27°   Ceiling: 8500
Heat Index: 34°   Visibility: 8mi
Dew Point: 28°   Wind: 8mph
Humidity: 79%   Direction: 110°ESE
Pressure: 29.92"   Gusts: NA
Location:  41.744°N, 87.6051°W
Report Text: KMDW 221353Z 11007KT 8SM SCT065 OVC085 01/M02 A2992 RMK AO2 SLP141 T00111022 $
Loading
Personal Weather Stations






























Interactive Weather Map New forecast layout! Learn more

10-Day Weather Forecast

Advertisements
Track Severe Weather on mobile